KRBL/RBL METAR and TAF weather

Enter ICAO airport designator
Station Type Date Time Source
KRBL METAR 2020/01/29 18:54 UTC NOAA

KRBL 291854Z AUTO 36009KT 10SM CLR 14/06 A3029 RMK AO2 SLP255 T01440056


Station Type Date Time Source
KRBL Decoded METAR 2020/01/29 18:54 UTC NOAA

RED BLUFF MUNICIPAL AIRPORT, CA, United States (KRBL) 40-09N 122-15W 104M
Jan 29, 2020 - 01:54 PM EST / 2020.01.29 1854 UTC
Wind: from the N (360 degrees) at 10 MPH (9 KT):0
Visibility: 10 mile(s):0
Sky conditions: clear
Temperature: 57.9 F (14.4 C)
Dew Point: 42.1 F (5.6 C)
Relative Humidity: 55%
Pressure (altimeter): 30.29 in. Hg (1025 hPa)
ob: KRBL 291854Z AUTO 36009KT 10SM CLR 14/06 A3029 RMK AO2 SLP255 T01440056
cycle: 19

Station Type Date Time Source
KRBL TAF 2020/01/29 18:45 UTC NOAA

TAF KRBL 291742Z 2918/3018 31007KT P6SM SCT100 BKN250
FM300000 36003KT P6SM BKN100 OVC250

Example: see airport list